Time;durP1;ratioP1;P1;durP2;ratioP2;P2;SDS_P1;SDS_P2;PMS_P1;PMS_P2;Temp;Humidity;BMP_temperature;BMP_pressure;BME280_temperature;BME280_humidity;BME280_pressure;Samples;Min_cycle;Max_cycle;Signal;HPM_P1;HPM_P2
2023/03/27 00:02:01;;;;;;;5.55;1.60;;;;;;;;;;5054575;28;20024;-69
2023/03/27 00:04:27;;;;;;;5.10;1.30;;;;;;;;;;5054366;28;20029;-69
2023/03/27 00:06:54;;;;;;;9.23;1.80;;;;;;;;;;5054099;28;20033;-69
2023/03/27 00:09:20;;;;;;;3.80;1.38;;;;;;;;;;5054116;28;20033;-69
2023/03/27 00:11:47;;;;;;;6.10;2.53;;;;;;;;;;5054420;28;20025;-69
2023/03/27 00:14:14;;;;;;;2.65;0.90;;;;;;;;;;5054147;28;20486;-69
2023/03/27 00:16:41;;;;;;;2.33;0.80;;;;;;;;;;5054422;28;20036;-69
2023/03/27 00:19:08;;;;;;;3.65;0.93;;;;;;;;;;5054412;28;20066;-69
2023/03/27 00:21:34;;;;;;;0.73;0.45;;;;;;;;;;5053961;28;20035;-69
2023/03/27 00:24:01;;;;;;;1.80;0.45;;;;;;;;;;5054118;28;20025;-69
2023/03/27 00:26:29;;;;;;;1.75;0.50;;;;;;;;;;5053815;28;20060;-69
2023/03/27 00:28:55;;;;;;;3.00;0.68;;;;;;;;;;5053722;28;20044;-68
2023/03/27 00:31:22;;;;;;;2.65;0.80;;;;;;;;;;5053770;28;20051;-69
2023/03/27 00:33:48;;;;;;;1.35;0.50;;;;;;;;;;5053946;28;20035;-69
2023/03/27 00:36:14;;;;;;;3.33;0.38;;;;;;;;;;5053482;28;20404;-70
2023/03/27 00:38:42;;;;;;;0.28;0.20;;;;;;;;;;5053779;28;20439;-69
2023/03/27 00:41:09;;;;;;;1.00;0.40;;;;;;;;;;5053587;28;20058;-69
2023/03/27 00:43:36;;;;;;;0.50;0.30;;;;;;;;;;5053766;28;20017;-69
2023/03/27 00:46:06;;;;;;;1.45;0.40;;;;;;;;;;5053639;28;20032;-69
2023/03/27 00:48:34;;;;;;;0.98;0.40;;;;;;;;;;5053577;28;20029;-69
2023/03/27 00:51:00;;;;;;;2.08;0.47;;;;;;;;;;5053437;28;20035;-69
2023/03/27 00:53:28;;;;;;;2.17;0.40;;;;;;;;;;5053759;28;20025;-69
2023/03/27 00:55:57;;;;;;;1.38;0.40;;;;;;;;;;5052137;28;20028;-69
2023/03/27 00:58:31;;;;;;;1.98;0.30;;;;;;;;;;5053518;28;20033;-69
2023/03/27 01:00:58;;;;;;;0.80;0.30;;;;;;;;;;5053398;28;20017;-69
2023/03/27 01:03:25;;;;;;;1.35;0.50;;;;;;;;;;5053435;28;20032;-69
2023/03/27 01:05:52;;;;;;;1.42;0.45;;;;;;;;;;5052900;28;20017;-69
2023/03/27 01:08:19;;;;;;;0.70;0.30;;;;;;;;;;5052701;28;20035;-69
2023/03/27 01:10:58;;;;;;;1.60;0.32;;;;;;;;;;5053390;28;20013;-70
2023/03/27 01:13:43;;;;;;;1.40;0.40;;;;;;;;;;5053072;28;20033;-69
2023/03/27 01:16:15;;;;;;;1.30;0.50;;;;;;;;;;5053169;28;20028;-69
2023/03/27 01:18:41;;;;;;;0.57;0.40;;;;;;;;;;5053304;28;20023;-69
2023/03/27 01:21:11;;;;;;;0.75;0.40;;;;;;;;;;5052652;28;20028;-67
2023/03/27 01:23:49;;;;;;;1.23;0.40;;;;;;;;;;5052817;28;20037;-69
2023/03/27 01:26:32;;;;;;;0.90;0.30;;;;;;;;;;5052827;28;20025;-69
2023/03/27 01:29:04;;;;;;;1.85;0.40;;;;;;;;;;5052432;28;20039;-69
2023/03/27 01:31:43;;;;;;;0.43;0.43;;;;;;;;;;5052648;28;20021;-69
2023/03/27 01:34:28;;;;;;;0.22;0.22;;;;;;;;;;5053218;28;20021;-69
2023/03/27 01:37:05;;;;;;;2.15;0.50;;;;;;;;;;5052596;28;20032;-69
2023/03/27 01:39:52;;;;;;;4.90;0.68;;;;;;;;;;5051354;28;20043;-69
2023/03/27 01:42:25;;;;;;;2.00;0.68;;;;;;;;;;5052230;28;20025;-69
2023/03/27 01:45:00;;;;;;;1.38;0.65;;;;;;;;;;5052554;28;20390;-69
2023/03/27 01:47:26;;;;;;;4.18;1.10;;;;;;;;;;5051110;28;20033;-69
2023/03/27 01:49:59;;;;;;;1.17;0.52;;;;;;;;;;5052347;28;20032;-69
2023/03/27 01:52:28;;;;;;;2.70;1.15;;;;;;;;;;5051145;28;20025;-69
2023/03/27 01:55:02;;;;;;;2.05;0.45;;;;;;;;;;5052516;28;20025;-69
2023/03/27 01:57:35;;;;;;;1.58;0.30;;;;;;;;;;5052572;28;20032;-69
2023/03/27 02:00:16;;;;;;;1.08;0.70;;;;;;;;;;5052198;28;20428;-69
2023/03/27 02:02:50;;;;;;;0.93;0.43;;;;;;;;;;5052206;28;20032;-69
2023/03/27 02:05:18;;;;;;;0.30;0.30;;;;;;;;;;5051914;28;20023;-69
2023/03/27 02:07:51;;;;;;;1.40;0.50;;;;;;;;;;5052039;28;20037;-69
2023/03/27 02:10:21;;;;;;;0.63;0.40;;;;;;;;;;5052056;28;20051;-69
2023/03/27 02:12:50;;;;;;;1.33;0.70;;;;;;;;;;5052112;28;20480;-69
2023/03/27 02:15:21;;;;;;;1.77;0.40;;;;;;;;;;5052079;28;20025;-69
2023/03/27 02:17:51;;;;;;;1.92;0.75;;;;;;;;;;5051931;28;20024;-69
2023/03/27 02:20:18;;;;;;;2.25;0.70;;;;;;;;;;5052222;28;20025;-69
2023/03/27 02:22:47;;;;;;;2.75;0.80;;;;;;;;;;5051966;28;20397;-69
2023/03/27 02:25:43;;;;;;;3.88;0.75;;;;;;;;;;5052090;28;20074;-69
2023/03/27 02:28:09;;;;;;;2.60;0.68;;;;;;;;;;5046991;28;20052;-69
2023/03/27 02:30:36;;;;;;;4.60;0.90;;;;;;;;;;5051832;28;20528;-69
2023/03/27 02:33:28;;;;;;;5.30;1.08;;;;;;;;;;5051789;28;20043;-69
2023/03/27 02:36:15;;;;;;;5.25;1.00;;;;;;;;;;5029688;28;20525;-69
2023/03/27 02:38:47;;;;;;;7.65;1.25;;;;;;;;;;5029742;28;20155;-69
2023/03/27 02:41:25;;;;;;;8.65;1.63;;;;;;;;;;5029661;28;20517;-69
2023/03/27 02:44:07;;;;;;;5.63;1.38;;;;;;;;;;5029668;28;20603;-69
2023/03/27 02:46:39;;;;;;;7.43;1.73;;;;;;;;;;5029589;28;20045;-69
2023/03/27 02:49:08;;;;;;;7.75;1.80;;;;;;;;;;5029604;28;20026;-69
2023/03/27 02:51:38;;;;;;;9.63;1.75;;;;;;;;;;5029332;28;20574;-69
2023/03/27 02:54:06;;;;;;;5.07;1.70;;;;;;;;;;5029918;28;20041;-69
2023/03/27 02:56:37;;;;;;;9.95;1.67;;;;;;;;;;5029849;28;20025;-69
2023/03/27 02:59:11;;;;;;;10.40;1.80;;;;;;;;;;5029734;28;20026;-69
2023/03/27 03:01:38;;;;;;;6.20;1.48;;;;;;;;;;5029395;28;20034;-69
2023/03/27 03:04:06;;;;;;;3.80;1.13;;;;;;;;;;5029588;28;20528;-69
2023/03/27 03:06:32;;;;;;;2.30;1.17;;;;;;;;;;5029658;28;20038;-69
2023/03/27 03:09:00;;;;;;;4.78;1.17;;;;;;;;;;5029640;28;20041;-69
2023/03/27 03:11:27;;;;;;;2.28;1.00;;;;;;;;;;5029522;28;20022;-69
2023/03/27 03:13:54;;;;;;;5.10;1.10;;;;;;;;;;5031590;28;20540;-69
2023/03/27 03:16:21;;;;;;;1.42;0.57;;;;;;;;;;5031366;28;20367;-69
2023/03/27 03:18:48;;;;;;;1.40;0.40;;;;;;;;;;5031708;28;20041;-69
2023/03/27 03:21:15;;;;;;;4.05;1.38;;;;;;;;;;5031814;28;20029;-69
2023/03/27 03:23:41;;;;;;;4.25;1.30;;;;;;;;;;5031472;28;20036;-69
2023/03/27 03:26:07;;;;;;;2.55;1.00;;;;;;;;;;5031718;28;20022;-69
2023/03/27 03:28:34;;;;;;;1.65;0.50;;;;;;;;;;5031241;28;20049;-69
2023/03/27 03:31:04;;;;;;;2.05;0.60;;;;;;;;;;5033223;28;20029;-69
2023/03/27 03:33:31;;;;;;;5.97;0.90;;;;;;;;;;5035344;28;20025;-69
2023/03/27 03:36:00;;;;;;;2.28;0.80;;;;;;;;;;5035004;28;20086;-69
2023/03/27 03:38:28;;;;;;;3.92;0.80;;;;;;;;;;5035133;28;20021;-69
2023/03/27 03:40:55;;;;;;;3.67;0.68;;;;;;;;;;5035093;28;20030;-69
2023/03/27 03:43:22;;;;;;;4.60;0.80;;;;;;;;;;5034896;28;20035;-69
2023/03/27 03:45:49;;;;;;;6.10;1.13;;;;;;;;;;5034391;28;20029;-69
2023/03/27 03:48:16;;;;;;;7.47;1.38;;;;;;;;;;5034696;28;20033;-69
2023/03/27 03:50:44;;;;;;;4.50;1.10;;;;;;;;;;5034770;28;20026;-69
2023/03/27 03:53:10;;;;;;;3.88;0.95;;;;;;;;;;5033403;28;20047;-69
2023/03/27 03:55:37;;;;;;;4.50;1.00;;;;;;;;;;5034583;28;20021;-69
2023/03/27 03:58:04;;;;;;;4.97;1.48;;;;;;;;;;5034874;28;20029;-69
2023/03/27 04:00:33;;;;;;;8.13;2.03;;;;;;;;;;5050811;28;20025;-69
2023/03/27 04:03:00;;;;;;;5.43;1.30;;;;;;;;;;5054381;28;20036;-69
2023/03/27 04:05:26;;;;;;;3.35;1.05;;;;;;;;;;5054331;28;20046;-69
2023/03/27 04:07:52;;;;;;;5.53;1.50;;;;;;;;;;5054270;28;20037;-69
2023/03/27 04:10:19;;;;;;;11.00;2.50;;;;;;;;;;5054252;28;20035;-69
2023/03/27 04:12:46;;;;;;;7.95;2.10;;;;;;;;;;5054514;28;20031;-69
2023/03/27 04:15:12;;;;;;;6.78;1.73;;;;;;;;;;5053924;28;20027;-69
2023/03/27 04:17:39;;;;;;;4.47;1.90;;;;;;;;;;5054304;28;20020;-69
2023/03/27 04:20:05;;;;;;;2.42;0.90;;;;;;;;;;5054448;28;20025;-69
2023/03/27 04:22:36;;;;;;;5.18;0.88;;;;;;;;;;5053872;28;20021;-69
2023/03/27 04:25:07;;;;;;;3.72;0.80;;;;;;;;;;5054269;28;20025;-69
2023/03/27 04:27:34;;;;;;;4.55;0.88;;;;;;;;;;5053889;28;20041;-69
2023/03/27 04:30:01;;;;;;;4.45;0.88;;;;;;;;;;5053523;28;20041;-69
2023/03/27 04:32:28;;;;;;;3.47;0.73;;;;;;;;;;5053712;28;20035;-69
2023/03/27 04:34:55;;;;;;;3.22;1.25;;;;;;;;;;5054023;28;20028;-69
2023/03/27 04:37:22;;;;;;;3.75;1.00;;;;;;;;;;5053751;28;20047;-69
2023/03/27 04:39:48;;;;;;;4.13;1.23;;;;;;;;;;5053960;28;20013;-69
2023/03/27 04:42:14;;;;;;;4.53;1.52;;;;;;;;;;5052500;28;20021;-69
2023/03/27 04:44:41;;;;;;;7.07;2.10;;;;;;;;;;5053560;28;20021;-69
2023/03/27 04:47:07;;;;;;;4.68;2.30;;;;;;;;;;5053655;28;20078;-69
2023/03/27 04:49:41;;;;;;;7.75;2.55;;;;;;;;;;5053584;28;20009;-69
2023/03/27 04:52:08;;;;;;;6.55;3.00;;;;;;;;;;5053636;28;20029;-69
2023/03/27 04:54:35;;;;;;;6.50;1.90;;;;;;;;;;5053542;28;20508;-69
2023/03/27 04:57:02;;;;;;;2.05;1.20;;;;;;;;;;5053474;28;20029;-69
2023/03/27 04:59:30;;;;;;;6.82;2.13;;;;;;;;;;5052995;28;20029;-69
2023/03/27 05:01:58;;;;;;;10.10;3.47;;;;;;;;;;5053245;28;20029;-69
2023/03/27 05:04:27;;;;;;;22.20;8.10;;;;;;;;;;5053236;28;20036;-68
2023/03/27 05:06:54;;;;;;;8.27;3.45;;;;;;;;;;5053159;28;20413;-69
2023/03/27 05:09:21;;;;;;;5.60;2.33;;;;;;;;;;5053121;28;20428;-69
2023/03/27 05:11:49;;;;;;;3.45;1.67;;;;;;;;;;5052892;28;20025;-69
2023/03/27 05:14:16;;;;;;;3.67;1.48;;;;;;;;;;5052966;28;20024;-69
2023/03/27 05:16:43;;;;;;;1.38;0.77;;;;;;;;;;5052965;28;20040;-69
2023/03/27 05:19:10;;;;;;;3.90;1.30;;;;;;;;;;5053000;28;20101;-69
2023/03/27 05:21:36;;;;;;;3.38;1.25;;;;;;;;;;5052901;28;20501;-69
2023/03/27 05:24:03;;;;;;;2.10;0.98;;;;;;;;;;5052964;28;20039;-69
2023/03/27 05:26:29;;;;;;;2.45;1.02;;;;;;;;;;5052730;28;20055;-69
2023/03/27 05:28:57;;;;;;;2.80;0.90;;;;;;;;;;5052700;28;20052;-69
2023/03/27 05:31:24;;;;;;;1.67;0.68;;;;;;;;;;5052924;28;20439;-69
2023/03/27 05:33:52;;;;;;;1.50;0.70;;;;;;;;;;5052603;28;20039;-69
2023/03/27 05:36:19;;;;;;;4.10;1.13;;;;;;;;;;5052624;28;20029;-69
2023/03/27 05:38:45;;;;;;;2.15;0.95;;;;;;;;;;5052616;28;20027;-69
2023/03/27 05:41:14;;;;;;;1.98;0.70;;;;;;;;;;5052341;28;20025;-69
2023/03/27 05:43:41;;;;;;;3.10;0.90;;;;;;;;;;5052517;28;20107;-69
2023/03/27 05:46:07;;;;;;;2.60;0.80;;;;;;;;;;5052463;28;20027;-69
2023/03/27 05:48:34;;;;;;;2.13;0.90;;;;;;;;;;5052814;28;20074;-69
2023/03/27 05:51:01;;;;;;;3.83;1.00;;;;;;;;;;5052342;28;20025;-69
2023/03/27 05:53:27;;;;;;;3.15;1.40;;;;;;;;;;5051957;28;20396;-69
2023/03/27 05:55:53;;;;;;;4.50;0.80;;;;;;;;;;5051992;28;20035;-69
2023/03/27 05:58:19;;;;;;;6.80;3.83;;;;;;;;;;5052231;28;20437;-69
2023/03/27 06:00:46;;;;;;;2.88;1.30;;;;;;;;;;5052245;28;20373;-69
2023/03/27 06:03:13;;;;;;;3.47;0.70;;;;;;;;;;5052399;28;20031;-69
2023/03/27 06:05:40;;;;;;;2.35;0.70;;;;;;;;;;5052019;28;20035;-69
2023/03/27 06:08:08;;;;;;;2.40;0.88;;;;;;;;;;5052161;28;20039;-68
2023/03/27 06:10:34;;;;;;;0.50;0.50;;;;;;;;;;5050809;28;20590;-69
2023/03/27 06:13:05;;;;;;;0.60;0.55;;;;;;;;;;5052018;28;20035;-69
2023/03/27 06:15:32;;;;;;;2.90;0.68;;;;;;;;;;5052040;28;20013;-69
2023/03/27 06:17:58;;;;;;;4.43;1.00;;;;;;;;;;5052252;28;20064;-69
2023/03/27 06:20:25;;;;;;;1.25;0.70;;;;;;;;;;5051904;28;20033;-69
2023/03/27 06:22:54;;;;;;;1.30;0.60;;;;;;;;;;5047803;28;20021;-69
2023/03/27 06:25:20;;;;;;;6.47;3.50;;;;;;;;;;5031357;28;20087;-69
2023/03/27 06:27:48;;;;;;;2.53;0.90;;;;;;;;;;5046766;28;20049;-69
2023/03/27 06:30:16;;;;;;;3.08;1.88;;;;;;;;;;5051079;28;20064;-69
2023/03/27 06:32:46;;;;;;;0.90;0.90;;;;;;;;;;5051445;28;20378;-69
2023/03/27 06:35:16;;;;;;;1.10;0.90;;;;;;;;;;5050873;28;20028;-69
2023/03/27 06:37:45;;;;;;;2.50;1.08;;;;;;;;;;5041908;28;20027;-69
2023/03/27 06:40:21;;;;;;;3.25;1.15;;;;;;;;;;5050922;28;20025;-69
2023/03/27 06:42:49;;;;;;;2.17;1.40;;;;;;;;;;5051711;28;20021;-69
2023/03/27 06:45:15;;;;;;;7.28;3.60;;;;;;;;;;5050623;28;20519;-69
2023/03/27 06:47:47;;;;;;;18.98;8.23;;;;;;;;;;5050570;28;20444;-69
2023/03/27 06:50:13;;;;;;;18.00;9.98;;;;;;;;;;5047443;28;20029;-68
2023/03/27 06:52:40;;;;;;;4.38;2.85;;;;;;;;;;5050579;28;20025;-69
2023/03/27 06:55:07;;;;;;;9.80;5.03;;;;;;;;;;5063342;28;20024;-68
2023/03/27 06:57:33;;;;;;;10.63;6.32;;;;;;;;;;5051519;28;20405;-69
2023/03/27 07:00:00;;;;;;;7.60;4.80;;;;;;;;;;5050232;28;20033;-68
2023/03/27 07:02:26;;;;;;;2.97;1.95;;;;;;;;;;5050665;28;20025;-69
2023/03/27 07:04:52;;;;;;;3.17;1.80;;;;;;;;;;5050376;28;20029;-69
2023/03/27 07:07:19;;;;;;;18.42;9.95;;;;;;;;;;5054481;28;20040;-69
2023/03/27 07:09:46;;;;;;;3.13;1.50;;;;;;;;;;5054701;28;20027;-69
2023/03/27 07:12:12;;;;;;;5.00;3.03;;;;;;;;;;5054074;28;20489;-69
2023/03/27 07:14:38;;;;;;;6.22;3.65;;;;;;;;;;5054418;28;20493;-68
2023/03/27 07:17:05;;;;;;;11.65;5.82;;;;;;;;;;5054602;28;21478;-69
2023/03/27 07:19:31;;;;;;;18.80;8.23;;;;;;;;;;5056406;28;20033;-69
2023/03/27 07:21:58;;;;;;;16.42;10.48;;;;;;;;;;5049065;28;20046;-70
2023/03/27 07:24:24;;;;;;;5.00;4.53;;;;;;;;;;5052186;28;20033;-69
2023/03/27 07:26:50;;;;;;;3.40;1.20;;;;;;;;;;5053511;28;20401;-69
2023/03/27 07:29:17;;;;;;;0.95;0.68;;;;;;;;;;5057168;28;20505;-69
2023/03/27 07:31:43;;;;;;;1.95;1.52;;;;;;;;;;5073580;28;20037;-69
2023/03/27 07:34:10;;;;;;;0.55;0.52;;;;;;;;;;5073385;28;20020;-70
2023/03/27 07:36:36;;;;;;;1.48;0.52;;;;;;;;;;5061133;28;20027;-69
2023/03/27 07:39:03;;;;;;;1.13;0.85;;;;;;;;;;5051888;28;20025;-69
2023/03/27 07:41:29;;;;;;;1.20;1.00;;;;;;;;;;5053207;28;20032;-69
2023/03/27 07:43:56;;;;;;;0.95;0.75;;;;;;;;;;5052947;28;20473;-69
2023/03/27 07:46:22;;;;;;;1.95;0.82;;;;;;;;;;5053031;28;20404;-69
2023/03/27 07:48:49;;;;;;;1.67;1.02;;;;;;;;;;5052670;28;20474;-68
2023/03/27 07:51:16;;;;;;;0.85;0.80;;;;;;;;;;5072556;28;20020;-70
2023/03/27 07:53:43;;;;;;;1.20;0.50;;;;;;;;;;5056716;28;20025;-70
2023/03/27 07:56:10;;;;;;;1.95;0.73;;;;;;;;;;5053278;28;20027;-70
2023/03/27 07:58:36;;;;;;;1.48;0.60;;;;;;;;;;5053165;28;20397;-70
2023/03/27 08:01:03;;;;;;;0.77;0.47;;;;;;;;;;5053413;28;20032;-70
2023/03/27 08:03:30;;;;;;;0.73;0.60;;;;;;;;;;5053046;28;20478;-70
2023/03/27 08:05:58;;;;;;;0.60;0.40;;;;;;;;;;5052770;28;20032;-69
2023/03/27 08:08:25;;;;;;;0.38;0.30;;;;;;;;;;5051778;28;20033;-70
2023/03/27 08:10:53;;;;;;;0.60;0.60;;;;;;;;;;5051955;28;20025;-70
2023/03/27 08:13:20;;;;;;;0.70;0.50;;;;;;;;;;5052777;28;20500;-69
2023/03/27 08:15:46;;;;;;;0.50;0.35;;;;;;;;;;5053055;28;20024;-69
2023/03/27 08:18:13;;;;;;;0.68;0.38;;;;;;;;;;5052673;28;20029;-70
2023/03/27 08:20:39;;;;;;;0.65;0.50;;;;;;;;;;5052788;28;20111;-69
2023/03/27 08:23:05;;;;;;;0.63;0.63;;;;;;;;;;5052177;28;20027;-68
2023/03/27 08:25:32;;;;;;;1.95;0.63;;;;;;;;;;5052447;28;20052;-69
2023/03/27 08:28:00;;;;;;;0.95;0.50;;;;;;;;;;5051323;28;20219;-68
2023/03/27 08:30:26;;;;;;;1.40;1.30;;;;;;;;;;5052938;28;20033;-70
2023/03/27 08:32:52;;;;;;;4.20;2.60;;;;;;;;;;5062217;28;20035;-69
2023/03/27 08:35:19;;;;;;;1.40;0.70;;;;;;;;;;5060915;28;20485;-69
2023/03/27 08:37:45;;;;;;;1.45;0.98;;;;;;;;;;5056946;28;20029;-70
2023/03/27 08:40:24;;;;;;;1.85;0.50;;;;;;;;;;5051112;28;20544;-70
2023/03/27 08:42:53;;;;;;;0.52;0.52;;;;;;;;;;5051382;28;20521;-70
2023/03/27 08:45:37;;;;;;;2.50;1.40;;;;;;;;;;5051827;28;20393;-69
2023/03/27 08:48:24;;;;;;;1.15;0.75;;;;;;;;;;5051786;28;20035;-71
2023/03/27 08:51:03;;;;;;;1.67;1.42;;;;;;;;;;5050587;28;20025;-70
2023/03/27 08:53:41;;;;;;;2.45;0.80;;;;;;;;;;5053003;28;20029;-70
2023/03/27 08:56:12;;;;;;;1.65;1.10;;;;;;;;;;5051784;28;20467;-70
2023/03/27 08:58:39;;;;;;;0.70;0.70;;;;;;;;;;5052064;28;20036;-70
2023/03/27 09:01:05;;;;;;;2.05;0.80;;;;;;;;;;5064230;28;20103;-71
2023/03/27 09:03:40;;;;;;;1.17;0.80;;;;;;;;;;5051507;28;20035;-70
2023/03/27 09:06:10;;;;;;;0.60;0.60;;;;;;;;;;5052124;28;20025;-70
2023/03/27 09:08:49;;;;;;;0.70;0.70;;;;;;;;;;5051457;28;20617;-71
2023/03/27 09:11:21;;;;;;;1.42;0.30;;;;;;;;;;5050994;28;20041;-70
2023/03/27 09:13:48;;;;;;;1.50;0.40;;;;;;;;;;5049960;28;20443;-70
2023/03/27 09:16:18;;;;;;;2.72;0.52;;;;;;;;;;5052282;28;20753;-70
2023/03/27 09:18:47;;;;;;;2.70;0.60;;;;;;;;;;5054698;28;20033;-70
2023/03/27 09:21:18;;;;;;;0.60;0.60;;;;;;;;;;5050610;28;20029;-71
2023/03/27 09:23:45;;;;;;;1.65;0.40;;;;;;;;;;5051355;28;20453;-70
2023/03/27 09:26:14;;;;;;;0.40;0.40;;;;;;;;;;5051935;28;20025;-70
2023/03/27 09:28:50;;;;;;;0.75;0.30;;;;;;;;;;5050931;28;20053;-70
2023/03/27 09:31:25;;;;;;;2.00;0.57;;;;;;;;;;5051616;28;20033;-70
2023/03/27 09:33:51;;;;;;;0.60;0.45;;;;;;;;;;5051252;28;20025;-70
2023/03/27 09:36:18;;;;;;;0.52;0.30;;;;;;;;;;5051688;28;20031;-70
2023/03/27 09:38:49;;;;;;;1.85;0.75;;;;;;;;;;5052635;28;20029;-70
2023/03/27 09:41:28;;;;;;;1.52;0.45;;;;;;;;;;5031984;28;20034;-69
2023/03/27 09:44:05;;;;;;;2.10;1.30;;;;;;;;;;5056501;28;20070;-69
2023/03/27 09:46:32;;;;;;;1.20;0.70;;;;;;;;;;5051005;28;20793;-69
2023/03/27 09:49:01;;;;;;;1.10;0.63;;;;;;;;;;5050983;28;20542;-69
2023/03/27 09:51:48;;;;;;;2.30;0.80;;;;;;;;;;5049403;28;20025;-69
2023/03/27 09:54:16;;;;;;;1.25;0.80;;;;;;;;;;5047727;28;20020;-70
2023/03/27 09:56:48;;;;;;;2.47;0.80;;;;;;;;;;5052275;28;20039;-70
2023/03/27 09:59:32;;;;;;;2.72;0.82;;;;;;;;;;5057757;28;20033;-70
2023/03/27 10:01:59;;;;;;;4.53;3.08;;;;;;;;;;5051111;28;20031;-69
2023/03/27 10:04:31;;;;;;;2.15;1.50;;;;;;;;;;5050332;28;20497;-70
2023/03/27 10:07:07;;;;;;;3.25;2.45;;;;;;;;;;5050755;28;20033;-70
2023/03/27 10:09:34;;;;;;;2.38;2.17;;;;;;;;;;5050712;28;20029;-70
2023/03/27 10:12:07;;;;;;;2.67;1.60;;;;;;;;;;5051257;28;20025;-70
2023/03/27 10:14:35;;;;;;;1.23;1.20;;;;;;;;;;5050852;28;20028;-70
2023/03/27 10:17:03;;;;;;;0.75;0.75;;;;;;;;;;5049873;28;20025;-69
2023/03/27 10:19:32;;;;;;;2.40;2.10;;;;;;;;;;5051652;28;20036;-70
2023/03/27 10:22:15;;;;;;;1.02;1.00;;;;;;;;;;5070799;28;20021;-71
2023/03/27 10:24:45;;;;;;;0.70;0.70;;;;;;;;;;5070922;28;20558;-69
2023/03/27 10:27:17;;;;;;;1.80;0.70;;;;;;;;;;5071199;28;20052;-69
2023/03/27 10:29:44;;;;;;;0.43;0.43;;;;;;;;;;5070814;28;20045;-70
2023/03/27 10:32:10;;;;;;;3.03;0.93;;;;;;;;;;5070736;28;20037;-71
2023/03/27 10:34:36;;;;;;;0.55;0.55;;;;;;;;;;5071109;28;20024;-69
2023/03/27 10:37:18;;;;;;;0.30;0.30;;;;;;;;;;5070949;28;20024;-69
2023/03/27 10:39:45;;;;;;;0.57;0.57;;;;;;;;;;5070687;28;20028;-69
2023/03/27 10:42:12;;;;;;;0.88;0.80;;;;;;;;;;5074990;28;20021;-69
2023/03/27 10:44:39;;;;;;;0.50;0.40;;;;;;;;;;5074826;28;20093;-69
2023/03/27 10:47:14;;;;;;;0.73;0.73;;;;;;;;;;5074553;28;20024;-68
2023/03/27 10:49:45;;;;;;;0.73;0.73;;;;;;;;;;5074734;28;20039;-68
2023/03/27 10:52:11;;;;;;;0.90;0.65;;;;;;;;;;5074924;28;20023;-69
2023/03/27 10:54:37;;;;;;;0.47;0.43;;;;;;;;;;5073487;28;20032;-70
2023/03/27 10:57:09;;;;;;;0.40;0.40;;;;;;;;;;5074647;28;20058;-70
2023/03/27 10:59:43;;;;;;;2.28;0.43;;;;;;;;;;5059295;28;20013;-69
2023/03/27 11:02:17;;;;;;;1.08;0.50;;;;;;;;;;5054454;28;20431;-69
2023/03/27 11:04:50;;;;;;;1.40;0.77;;;;;;;;;;5054417;28;20027;-69
2023/03/27 11:07:19;;;;;;;0.70;0.70;;;;;;;;;;5054466;28;20033;-69
2023/03/27 11:10:03;;;;;;;0.60;0.60;;;;;;;;;;5054276;28;20090;-69
2023/03/27 11:12:32;;;;;;;1.92;0.70;;;;;;;;;;5054379;28;20090;-70
2023/03/27 11:15:10;;;;;;;2.08;0.82;;;;;;;;;;5053911;28;20025;-70
2023/03/27 11:17:48;;;;;;;0.80;0.60;;;;;;;;;;5054410;28;20039;-70
2023/03/27 11:20:36;;;;;;;0.47;0.47;;;;;;;;;;5054063;28;20021;-69
2023/03/27 11:23:06;;;;;;;0.50;0.50;;;;;;;;;;5053971;28;20029;-70
2023/03/27 11:25:39;;;;;;;0.50;0.40;;;;;;;;;;5054503;28;20055;-70
2023/03/27 11:28:09;;;;;;;1.35;0.57;;;;;;;;;;5053004;28;20064;-70
2023/03/27 11:30:51;;;;;;;0.50;0.40;;;;;;;;;;5054271;28;20037;-70
2023/03/27 11:33:23;;;;;;;0.85;0.77;;;;;;;;;;5054164;28;20041;-68
2023/03/27 11:36:03;;;;;;;3.22;0.50;;;;;;;;;;5053772;28;20033;-70
2023/03/27 11:38:32;;;;;;;;;;;;;;;;;;5054571;28;20025;-70
2023/03/27 11:40:59;;;;;;;1.05;0.50;;;;;;;;;;5053881;28;19905;-69
2023/03/27 11:43:26;;;;;;;0.88;0.47;;;;;;;;;;5053563;28;20051;-69
2023/03/27 11:45:52;;;;;;;2.33;0.55;;;;;;;;;;5053863;28;20101;-70
2023/03/27 11:48:33;;;;;;;0.45;0.45;;;;;;;;;;5053458;28;20034;-70
2023/03/27 11:51:07;;;;;;;4.35;0.40;;;;;;;;;;5052857;28;20014;-70
2023/03/27 11:54:00;;;;;;;1.45;0.60;;;;;;;;;;5053779;28;20035;-70
2023/03/27 11:56:45;;;;;;;2.05;0.50;;;;;;;;;;5051550;28;20039;-70
2023/03/27 11:59:30;;;;;;;3.00;0.60;;;;;;;;;;5053114;28;20440;-70
2023/03/27 12:01:56;;;;;;;0.75;0.50;;;;;;;;;;5053312;28;20033;-70
2023/03/27 12:04:41;;;;;;;2.40;0.57;;;;;;;;;;5053245;28;20044;-71
2023/03/27 12:07:13;;;;;;;1.02;0.47;;;;;;;;;;5053126;28;20040;-70
2023/03/27 12:09:51;;;;;;;0.98;0.60;;;;;;;;;;5053186;28;20018;-70
2023/03/27 12:12:28;;;;;;;0.63;0.47;;;;;;;;;;5053117;28;20017;-70
2023/03/27 12:15:11;;;;;;;0.55;0.35;;;;;;;;;;5053360;28;20040;-70
2023/03/27 12:17:56;;;;;;;1.00;0.50;;;;;;;;;;5052695;28;20013;-70
2023/03/27 12:20:26;;;;;;;1.08;0.60;;;;;;;;;;5053195;28;20037;-70
2023/03/27 12:23:11;;;;;;;0.60;0.60;;;;;;;;;;5052865;28;20310;-69
2023/03/27 12:25:49;;;;;;;0.43;0.40;;;;;;;;;;5053018;28;20028;-70
2023/03/27 12:28:19;;;;;;;0.50;0.50;;;;;;;;;;5052088;28;20424;-70
2023/03/27 12:30:49;;;;;;;0.40;0.40;;;;;;;;;;5053239;28;20039;-70
2023/03/27 12:33:15;;;;;;;0.50;0.50;;;;;;;;;;5051140;28;20029;-68
2023/03/27 12:35:44;;;;;;;0.85;0.57;;;;;;;;;;5052639;28;20047;-70
2023/03/27 12:38:26;;;;;;;0.57;0.40;;;;;;;;;;5051064;28;20502;-70
2023/03/27 12:41:02;;;;;;;1.55;0.50;;;;;;;;;;5052168;28;20042;-70
2023/03/27 12:43:28;;;;;;;2.03;0.70;;;;;;;;;;5050521;28;20482;-70
2023/03/27 12:46:27;;;;;;;2.00;0.55;;;;;;;;;;5052432;28;20023;-70
2023/03/27 12:48:54;;;;;;;0.88;0.60;;;;;;;;;;5030202;28;20514;-70
2023/03/27 12:51:36;;;;;;;1.85;0.60;;;;;;;;;;5030239;28;20050;-70
2023/03/27 12:54:32;;;;;;;1.17;0.70;;;;;;;;;;5030278;28;20032;-70
2023/03/27 12:57:04;;;;;;;1.15;0.60;;;;;;;;;;5013539;28;20517;-70
2023/03/27 12:59:49;;;;;;;0.60;0.60;;;;;;;;;;5030216;28;20037;-70
2023/03/27 13:02:15;;;;;;;0.70;0.60;;;;;;;;;;5024391;28;20018;-70
2023/03/27 13:04:53;;;;;;;0.60;0.60;;;;;;;;;;5009576;28;20042;-71
2023/03/27 13:07:25;;;;;;;1.65;0.63;;;;;;;;;;5010244;28;20510;-70
2023/03/27 13:10:03;;;;;;;0.85;0.52;;;;;;;;;;5010034;28;20136;-70
2023/03/27 13:12:40;;;;;;;0.57;0.55;;;;;;;;;;5009810;28;20550;-71
2023/03/27 13:15:18;;;;;;;0.45;0.43;;;;;;;;;;5010340;28;20028;-70
2023/03/27 13:17:50;;;;;;;1.05;0.57;;;;;;;;;;5021138;28;20052;-70
2023/03/27 13:20:17;;;;;;;0.40;0.40;;;;;;;;;;5029773;28;20028;-71
2023/03/27 13:22:45;;;;;;;0.50;0.50;;;;;;;;;;5029695;28;20037;-68
2023/03/27 13:25:25;;;;;;;0.85;0.60;;;;;;;;;;5031035;28;20049;-70
2023/03/27 13:28:09;;;;;;;0.60;0.60;;;;;;;;;;5035876;28;20037;-69
2023/03/27 13:30:47;;;;;;;0.50;0.50;;;;;;;;;;5051377;28;20029;-70
2023/03/27 13:33:23;;;;;;;1.58;0.55;;;;;;;;;;5032128;28;20035;-70
2023/03/27 13:36:09;;;;;;;1.17;0.63;;;;;;;;;;5040806;28;20098;-69
2023/03/27 13:38:51;;;;;;;1.85;0.50;;;;;;;;;;5051433;28;20036;-69
2023/03/27 13:41:36;;;;;;;1.00;0.60;;;;;;;;;;5051432;28;20370;-70
2023/03/27 13:44:05;;;;;;;0.50;0.50;;;;;;;;;;5051768;28;20021;-70
2023/03/27 13:46:33;;;;;;;1.98;0.40;;;;;;;;;;5052329;28;20393;-68
2023/03/27 13:49:06;;;;;;;0.52;0.52;;;;;;;;;;5050592;28;20029;-69
2023/03/27 13:51:51;;;;;;;2.25;0.80;;;;;;;;;;5051252;28;20436;-69
2023/03/27 13:54:36;;;;;;;1.58;0.68;;;;;;;;;;5051080;28;20027;-70
2023/03/27 13:57:02;;;;;;;1.00;0.70;;;;;;;;;;5051167;28;20029;-69
2023/03/27 13:59:37;;;;;;;0.73;0.60;;;;;;;;;;5051149;28;20485;-70
2023/03/27 14:02:27;;;;;;;1.38;0.60;;;;;;;;;;5051463;28;20023;-69
2023/03/27 14:04:54;;;;;;;2.47;0.70;;;;;;;;;;5051080;28;20020;-70
2023/03/27 14:07:30;;;;;;;0.40;0.40;;;;;;;;;;5051028;28;20041;-69
2023/03/27 14:09:56;;;;;;;0.88;0.45;;;;;;;;;;5050766;28;20031;-69
2023/03/27 14:12:36;;;;;;;0.40;0.35;;;;;;;;;;5050846;28;20021;-68
2023/03/27 14:15:06;;;;;;;0.90;0.40;;;;;;;;;;5050648;28;20482;-69
2023/03/27 14:17:41;;;;;;;1.92;0.30;;;;;;;;;;5051002;28;20035;-69
2023/03/27 14:20:20;;;;;;;1.52;0.70;;;;;;;;;;5051160;28;20028;-70
2023/03/27 14:22:52;;;;;;;2.75;1.25;;;;;;;;;;5050566;28;20033;-70
2023/03/27 14:25:21;;;;;;;0.50;0.50;;;;;;;;;;5050931;28;20020;-70
2023/03/27 14:27:52;;;;;;;0.50;0.50;;;;;;;;;;5050412;28;20033;-70
2023/03/27 14:30:20;;;;;;;1.10;0.55;;;;;;;;;;5050803;28;20033;-70
2023/03/27 14:32:47;;;;;;;0.65;0.50;;;;;;;;;;5050896;28;20017;-70
2023/03/27 14:35:28;;;;;;;0.50;0.50;;;;;;;;;;5050499;28;20051;-69
2023/03/27 14:37:55;;;;;;;2.63;0.55;;;;;;;;;;5053533;28;20118;-69
2023/03/27 14:40:31;;;;;;;0.85;0.65;;;;;;;;;;5050423;28;20035;-70
2023/03/27 14:42:58;;;;;;;0.75;0.60;;;;;;;;;;5051397;28;20521;-70
2023/03/27 14:45:26;;;;;;;0.80;0.70;;;;;;;;;;5050851;28;20485;-69
2023/03/27 14:47:55;;;;;;;1.58;0.70;;;;;;;;;;5049514;28;20029;-68
2023/03/27 14:50:22;;;;;;;1.35;0.57;;;;;;;;;;5050628;28;20088;-69
2023/03/27 14:52:58;;;;;;;0.70;0.47;;;;;;;;;;5051315;28;20027;-70
2023/03/27 14:55:28;;;;;;;1.23;0.52;;;;;;;;;;5051027;28;20017;-70
2023/03/27 14:57:56;;;;;;;1.17;0.50;;;;;;;;;;5050982;28;20512;-69
2023/03/27 15:00:23;;;;;;;0.57;0.57;;;;;;;;;;5051636;28;20024;-69
2023/03/27 15:02:51;;;;;;;1.75;1.10;;;;;;;;;;5050688;28;20519;-64
2023/03/27 15:05:20;;;;;;;1.83;0.95;;;;;;;;;;5051422;28;20025;-64